Time;durP1;ratioP1;P1;durP2;ratioP2;P2;SDS_P1;SDS_P2;PMS_P1;PMS_P2;Temp;Humidity;BMP_temperature;BMP_pressure;BME280_temperature;BME280_humidity;BME280_pressure;Samples;Min_cycle;Max_cycle;Signal;HPM_P1;HPM_P2
2021/07/02 00:00:16;;;;;;;0.40;0.20;;;14.10;99.90;;;;;;5108085;28;20416;-86
2021/07/02 00:02:43;;;;;;;0.40;0.30;;;14.10;99.90;;;;;;5091424;28;20382;-86
2021/07/02 00:05:10;;;;;;;0.40;0.20;;;14.00;99.90;;;;;;5090179;28;20487;-86
2021/07/02 00:07:36;;;;;;;0.40;0.20;;;14.00;99.90;;;;;;5097442;28;20396;-87
2021/07/02 00:10:02;;;;;;;0.40;0.20;;;13.90;99.90;;;;;;5110429;28;20400;-87
2021/07/02 00:12:28;;;;;;;0.40;0.20;;;13.90;99.90;;;;;;5090569;28;20378;-87
2021/07/02 00:14:54;;;;;;;0.40;0.20;;;13.90;99.90;;;;;;5101303;28;20399;-87
2021/07/02 00:17:19;;;;;;;0.40;0.20;;;13.90;99.90;;;;;;5109949;28;20387;-86
2021/07/02 00:19:45;;;;;;;0.40;0.20;;;13.90;99.90;;;;;;5091724;28;20422;-86
2021/07/02 00:22:11;;;;;;;0.40;0.30;;;13.80;99.90;;;;;;5106310;28;20790;-86
2021/07/02 00:24:36;;;;;;;0.40;0.22;;;13.80;99.90;;;;;;5104962;28;20386;-87
2021/07/02 00:27:03;;;;;;;0.40;0.20;;;13.90;99.90;;;;;;5091899;28;20413;-86
2021/07/02 00:29:28;;;;;;;0.40;0.20;;;13.80;99.90;;;;;;5108679;28;20414;-87
2021/07/02 00:31:54;;;;;;;0.40;0.30;;;13.80;99.90;;;;;;5110411;28;20387;-87
2021/07/02 00:34:20;;;;;;;0.40;0.30;;;13.70;99.90;;;;;;5110424;28;20368;-87
2021/07/02 00:36:46;;;;;;;0.40;0.20;;;13.70;99.90;;;;;;5111535;28;20400;-86
2021/07/02 00:39:11;;;;;;;0.40;0.20;;;13.70;99.90;;;;;;5095333;28;20394;-86
2021/07/02 00:41:37;;;;;;;0.40;0.20;;;13.60;99.90;;;;;;5081200;28;20388;-86
2021/07/02 00:44:03;;;;;;;0.70;0.60;;;13.60;99.90;;;;;;5111018;28;20376;-86
2021/07/02 00:46:29;;;;;;;0.40;0.20;;;13.50;99.90;;;;;;5091115;28;20378;-87
2021/07/02 00:48:55;;;;;;;0.40;0.30;;;13.50;99.90;;;;;;5107099;28;20391;-86
2021/07/02 00:51:22;;;;;;;0.40;0.30;;;13.40;99.90;;;;;;5090226;28;20428;-87
2021/07/02 00:53:48;;;;;;;0.40;0.30;;;13.40;99.90;;;;;;5073089;28;20894;-87
2021/07/02 00:56:19;;;;;;;0.40;0.30;;;13.50;99.90;;;;;;5090880;28;20405;-87
2021/07/02 00:58:44;;;;;;;0.40;0.20;;;13.50;99.90;;;;;;5092160;28;20519;-86
2021/07/02 01:01:14;;;;;;;0.40;0.30;;;13.50;99.90;;;;;;5091786;28;20381;-86
2021/07/02 01:03:45;;;;;;;0.40;0.20;;;13.40;99.90;;;;;;5110388;28;20388;-86
2021/07/02 01:06:13;;;;;;;0.40;0.20;;;13.30;99.90;;;;;;5101869;28;20773;-86
2021/07/02 01:08:40;;;;;;;0.40;0.30;;;13.30;99.90;;;;;;5090853;28;20893;-86
2021/07/02 01:11:08;;;;;;;0.40;0.20;;;13.30;99.90;;;;;;5109078;28;20408;-87
2021/07/02 01:13:34;;;;;;;0.40;0.30;;;13.30;99.90;;;;;;5102402;28;20393;-87
2021/07/02 01:15:59;;;;;;;0.40;0.30;;;13.30;99.90;;;;;;5090869;28;20371;-87
2021/07/02 01:18:25;;;;;;;0.40;0.30;;;13.30;99.90;;;;;;5105245;28;20451;-86
2021/07/02 01:20:53;;;;;;;0.40;0.20;;;13.20;99.90;;;;;;5110807;28;20396;-86
2021/07/02 01:23:19;;;;;;;0.40;0.30;;;13.20;99.90;;;;;;5107809;28;20427;-86
2021/07/02 01:25:45;;;;;;;0.40;0.30;;;13.20;99.90;;;;;;5072548;28;20478;-86
2021/07/02 01:28:12;;;;;;;0.40;0.30;;;13.10;99.90;;;;;;5106942;28;20469;-86
2021/07/02 01:30:40;;;;;;;0.40;0.20;;;13.10;99.90;;;;;;5089365;28;20485;-86
2021/07/02 01:33:06;;;;;;;0.40;0.30;;;13.00;99.90;;;;;;5091030;28;20466;-86
2021/07/02 01:35:32;;;;;;;0.40;0.20;;;13.10;99.90;;;;;;5083712;28;20424;-86
2021/07/02 01:37:57;;;;;;;0.40;0.20;;;13.10;99.90;;;;;;5106307;28;20888;-86
2021/07/02 01:40:23;;;;;;;0.40;0.20;;;13.00;99.90;;;;;;5089639;28;20928;-85
2021/07/02 01:42:48;;;;;;;0.40;0.20;;;13.10;99.90;;;;;;5088737;28;20427;-86
2021/07/02 01:45:14;;;;;;;0.40;0.20;;;13.00;99.90;;;;;;5100802;28;20394;-86
2021/07/02 01:47:40;;;;;;;0.40;0.30;;;13.00;99.90;;;;;;5090064;28;20369;-86
2021/07/02 01:50:07;;;;;;;0.40;0.20;;;13.10;99.90;;;;;;5109975;28;20432;-85
2021/07/02 01:52:33;;;;;;;0.40;0.30;;;13.00;99.90;;;;;;5103266;28;20400;-85
2021/07/02 01:54:58;;;;;;;0.40;0.20;;;13.00;99.90;;;;;;5094701;28;20472;-86
2021/07/02 01:57:28;;;;;;;0.40;0.20;;;13.00;99.90;;;;;;5095699;28;20410;-86
2021/07/02 01:59:55;;;;;;;0.40;0.30;;;13.00;99.90;;;;;;5098803;28;20751;-86
2021/07/02 02:02:21;;;;;;;0.40;0.30;;;12.90;99.90;;;;;;5110098;28;20792;-86
2021/07/02 02:04:47;;;;;;;0.40;0.20;;;13.00;99.90;;;;;;5075379;28;20488;-86
2021/07/02 02:07:13;;;;;;;0.40;0.30;;;12.80;99.90;;;;;;5100334;28;20467;-85
2021/07/02 02:09:39;;;;;;;0.40;0.20;;;12.80;99.90;;;;;;5088999;28;20450;-86
2021/07/02 02:12:06;;;;;;;0.40;0.30;;;12.80;99.90;;;;;;5089706;28;20386;-86
2021/07/02 02:14:31;;;;;;;0.40;0.20;;;12.80;99.90;;;;;;5088413;28;20392;-86
2021/07/02 02:16:57;;;;;;;0.40;0.30;;;12.70;99.90;;;;;;5080809;28;20406;-86
2021/07/02 02:19:23;;;;;;;0.40;0.20;;;12.70;99.90;;;;;;5090197;28;20447;-85
2021/07/02 02:21:50;;;;;;;0.40;0.30;;;12.70;99.90;;;;;;5090107;28;20378;-86
2021/07/02 02:24:17;;;;;;;1.30;0.50;;;12.60;99.90;;;;;;5105309;28;20481;-85
2021/07/02 02:26:43;;;;;;;0.40;0.20;;;12.60;99.90;;;;;;5101044;28;20417;-86
2021/07/02 02:29:09;;;;;;;0.40;0.20;;;12.60;99.90;;;;;;5093930;28;20402;-86
2021/07/02 02:31:34;;;;;;;0.40;0.20;;;12.70;99.90;;;;;;5110831;28;20581;-86
2021/07/02 02:34:01;;;;;;;0.40;0.20;;;12.60;99.90;;;;;;5101574;28;20386;-86
2021/07/02 02:36:27;;;;;;;0.40;0.20;;;12.60;99.90;;;;;;5093840;28;20398;-86
2021/07/02 02:38:52;;;;;;;0.40;0.30;;;12.60;99.90;;;;;;5095387;28;20384;-86
2021/07/02 02:41:19;;;;;;;0.40;0.30;;;12.60;99.90;;;;;;5097268;28;20734;-85
2021/07/02 02:43:44;;;;;;;0.40;0.20;;;12.60;99.90;;;;;;5099525;28;20406;-86
2021/07/02 02:46:10;;;;;;;0.40;0.30;;;12.70;99.90;;;;;;5114039;28;20372;-86
2021/07/02 02:48:36;;;;;;;0.40;0.20;;;12.60;99.90;;;;;;5098314;28;20382;-86
2021/07/02 02:51:01;;;;;;;0.40;0.20;;;12.60;99.90;;;;;;5094334;28;20418;-86
2021/07/02 02:53:27;;;;;;;0.40;0.20;;;12.60;99.90;;;;;;5113111;28;20412;-85
2021/07/02 02:55:53;;;;;;;0.40;0.20;;;12.70;99.90;;;;;;5113812;28;20776;-86
2021/07/02 02:58:19;;;;;;;0.40;0.20;;;13.00;99.90;;;;;;5111406;28;20377;-84
2021/07/02 03:00:44;;;;;;;0.40;0.20;;;12.70;99.90;;;;;;5094006;28;20789;-86
2021/07/02 03:03:10;;;;;;;0.40;0.30;;;12.70;99.90;;;;;;5095557;28;20384;-85
2021/07/02 03:05:36;;;;;;;0.40;0.20;;;12.70;99.90;;;;;;5095586;28;20398;-85
2021/07/02 03:08:02;;;;;;;0.40;0.20;;;12.70;99.90;;;;;;5098639;28;20480;-85
2021/07/02 03:10:29;;;;;;;0.40;0.20;;;12.70;99.90;;;;;;5095292;28;20408;-86
2021/07/02 03:12:55;;;;;;;0.40;0.20;;;12.80;99.90;;;;;;5107080;28;20392;-85
2021/07/02 03:15:20;;;;;;;0.40;0.30;;;12.80;99.90;;;;;;5107885;28;20873;-85
2021/07/02 03:17:46;;;;;;;0.40;0.20;;;12.70;99.90;;;;;;5092505;28;20416;-85
2021/07/02 03:20:12;;;;;;;0.40;0.20;;;12.80;99.90;;;;;;5092819;28;20401;-85
2021/07/02 03:22:41;;;;;;;0.40;0.20;;;12.80;99.90;;;;;;5091288;28;20409;-86
2021/07/02 03:25:07;;;;;;;0.40;0.20;;;12.70;99.90;;;;;;5092656;28;20384;-85
2021/07/02 03:27:33;;;;;;;0.40;0.28;;;12.80;99.90;;;;;;5111753;28;20740;-85
2021/07/02 03:29:59;;;;;;;0.40;0.30;;;12.70;99.90;;;;;;5100698;28;20394;-85
2021/07/02 03:32:25;;;;;;;0.40;0.20;;;12.70;99.90;;;;;;5073611;28;20394;-85
2021/07/02 03:34:51;;;;;;;0.40;0.20;;;12.70;99.90;;;;;;5111527;28;20483;-86
2021/07/02 03:37:18;;;;;;;0.40;0.27;;;12.70;99.90;;;;;;5080481;28;20918;-85
2021/07/02 03:39:44;;;;;;;0.40;0.20;;;12.70;99.90;;;;;;5072774;28;20470;-85
2021/07/02 03:42:09;;;;;;;0.40;0.20;;;12.70;99.90;;;;;;5112214;28;20484;-86
2021/07/02 03:44:35;;;;;;;0.40;0.20;;;12.60;99.90;;;;;;5097213;28;20801;-85
2021/07/02 03:47:02;;;;;;;0.40;0.20;;;12.60;99.90;;;;;;5092002;28;20781;-85
2021/07/02 03:49:28;;;;;;;0.40;0.20;;;12.50;99.90;;;;;;5090664;28;20481;-85
2021/07/02 03:51:54;;;;;;;0.40;0.20;;;12.50;99.90;;;;;;5099127;28;20425;-85
2021/07/02 03:54:20;;;;;;;0.40;0.30;;;12.50;99.90;;;;;;5094950;28;20385;-85
2021/07/02 03:59:29;;;;;;;0.40;0.28;;;12.60;99.90;;;;;;5092186;28;20746;-86
2021/07/02 04:01:55;;;;;;;0.40;0.30;;;12.50;99.90;;;;;;5105953;28;20388;-85
2021/07/02 04:04:22;;;;;;;0.40;0.20;;;12.60;99.90;;;;;;5105055;28;20484;-85
2021/07/02 04:06:48;;;;;;;0.40;0.20;;;12.60;99.90;;;;;;5091564;28;20398;-86
2021/07/02 04:09:14;;;;;;;0.40;0.20;;;12.60;99.90;;;;;;5074010;28;20417;-86
2021/07/02 04:11:40;;;;;;;0.40;0.20;;;12.50;99.90;;;;;;5067949;28;20448;-85
2021/07/02 04:14:06;;;;;;;0.40;0.20;;;12.50;99.90;;;;;;5092168;28;20430;-85
2021/07/02 04:16:32;;;;;;;0.40;0.20;;;12.50;99.90;;;;;;5089890;28;20451;-85
2021/07/02 04:18:57;;;;;;;0.40;0.30;;;12.50;99.90;;;;;;5069432;28;20807;-85
2021/07/02 04:21:23;;;;;;;0.40;0.30;;;12.60;99.90;;;;;;5085871;28;20374;-86
2021/07/02 04:23:49;;;;;;;0.40;0.20;;;12.60;99.90;;;;;;5089772;28;20434;-85
2021/07/02 04:26:18;;;;;;;0.70;0.52;;;12.70;99.90;;;;;;5089830;28;20402;-86
2021/07/02 04:28:44;;;;;;;0.40;0.20;;;12.80;99.90;;;;;;5070111;28;20459;-85
2021/07/02 04:31:09;;;;;;;0.40;0.30;;;12.80;99.90;;;;;;5087170;28;20806;-84
2021/07/02 04:33:35;;;;;;;0.40;0.20;;;12.70;99.90;;;;;;5087745;28;20397;-85
2021/07/02 04:36:01;;;;;;;0.40;0.20;;;12.90;99.90;;;;;;5086422;28;20967;-85
2021/07/02 04:38:26;;;;;;;0.40;0.30;;;12.90;99.90;;;;;;5086961;28;20387;-85
2021/07/02 04:40:52;;;;;;;0.40;0.30;;;12.90;99.90;;;;;;5085783;28;20527;-85
2021/07/02 04:43:18;;;;;;;0.40;0.27;;;12.90;99.90;;;;;;5086241;28;20398;-85
2021/07/02 04:45:43;;;;;;;0.40;0.20;;;13.00;99.90;;;;;;5088033;28;20387;-86
2021/07/02 04:48:09;;;;;;;0.40;0.20;;;13.00;99.90;;;;;;5085829;28;20483;-85
2021/07/02 04:50:35;;;;;;;0.40;0.20;;;13.00;99.90;;;;;;5086155;28;20432;-85
2021/07/02 04:53:01;;;;;;;0.40;0.20;;;13.00;99.90;;;;;;5090776;28;20455;-85
2021/07/02 04:55:27;;;;;;;0.40;0.23;;;13.20;99.90;;;;;;5088306;28;20556;-85
2021/07/02 04:57:52;;;;;;;0.40;0.30;;;13.20;99.90;;;;;;5086775;28;20394;-85
2021/07/02 05:00:18;;;;;;;0.40;0.20;;;13.10;99.90;;;;;;5070009;28;20407;-86
2021/07/02 05:02:44;;;;;;;0.40;0.20;;;13.30;99.90;;;;;;5084403;28;20392;-85
2021/07/02 05:05:13;;;;;;;0.40;0.30;;;13.30;99.90;;;;;;5087520;28;20861;-85
2021/07/02 05:07:39;;;;;;;0.40;0.20;;;13.20;99.90;;;;;;5087572;28;20401;-85
2021/07/02 05:10:06;;;;;;;0.40;0.30;;;13.20;99.90;;;;;;5088575;28;20402;-85
2021/07/02 05:12:32;;;;;;;0.40;0.30;;;13.10;99.90;;;;;;5086619;28;20756;-85
2021/07/02 05:14:59;;;;;;;0.40;0.30;;;13.10;99.90;;;;;;5088486;28;20398;-85
2021/07/02 05:17:25;;;;;;;0.40;0.20;;;13.10;99.90;;;;;;5087334;28;20385;-85
2021/07/02 05:19:51;;;;;;;0.40;0.30;;;13.30;99.90;;;;;;5087924;28;20388;-85
2021/07/02 05:22:19;;;;;;;0.40;0.20;;;13.50;99.90;;;;;;5068490;28;20421;-85
2021/07/02 05:24:49;;;;;;;0.40;0.20;;;13.40;99.90;;;;;;5086360;28;20403;-85
2021/07/02 05:27:15;;;;;;;0.40;0.20;;;13.40;99.90;;;;;;5086888;28;20402;-85
2021/07/02 05:29:41;;;;;;;0.40;0.30;;;13.40;99.90;;;;;;5086875;28;20469;-85
2021/07/02 05:32:07;;;;;;;0.40;0.20;;;13.50;99.90;;;;;;5087016;28;21397;-85
2021/07/02 05:34:33;;;;;;;0.40;0.20;;;13.70;99.90;;;;;;5086604;28;20468;-85
2021/07/02 05:36:59;;;;;;;0.40;0.20;;;13.70;99.90;;;;;;5086425;28;20469;-86
2021/07/02 05:39:28;;;;;;;0.40;0.20;;;13.80;99.90;;;;;;5069492;28;20409;-85
2021/07/02 05:41:54;;;;;;;0.40;0.30;;;13.80;99.90;;;;;;5085841;28;20399;-85
2021/07/02 05:44:20;;;;;;;0.40;0.20;;;13.80;99.90;;;;;;5086810;28;20400;-85
2021/07/02 05:46:46;;;;;;;0.40;0.30;;;14.00;99.90;;;;;;5070718;28;20646;-85
2021/07/02 05:49:15;;;;;;;0.40;0.30;;;14.00;99.90;;;;;;5047276;28;20755;-87
2021/07/02 05:51:41;;;;;;;0.40;0.30;;;14.10;99.90;;;;;;5063882;28;20546;-85
2021/07/02 05:54:08;;;;;;;0.40;0.20;;;14.20;99.90;;;;;;5063920;28;20417;-86
2021/07/02 05:56:34;;;;;;;0.40;0.30;;;14.30;99.90;;;;;;5074104;28;20447;-85
2021/07/02 05:59:01;;;;;;;0.40;0.28;;;14.30;99.90;;;;;;5068780;28;20420;-85
2021/07/02 06:01:27;;;;;;;0.40;0.30;;;14.40;99.90;;;;;;5084010;28;20390;-85
2021/07/02 06:03:53;;;;;;;0.40;0.20;;;14.50;99.90;;;;;;5088726;27;20393;-87
2021/07/02 06:06:19;;;;;;;0.40;0.30;;;14.60;99.90;;;;;;5093220;28;20380;-85
2021/07/02 06:08:46;;;;;;;0.40;0.20;;;14.70;99.90;;;;;;5090565;28;20401;-85
2021/07/02 06:11:12;;;;;;;0.40;0.30;;;14.70;99.90;;;;;;5089759;28;20410;-85
2021/07/02 06:13:38;;;;;;;0.40;0.28;;;14.70;99.90;;;;;;5071036;28;20515;-86
2021/07/02 06:16:04;;;;;;;0.40;0.20;;;14.80;99.90;;;;;;5090921;28;20383;-86
2021/07/02 06:18:30;;;;;;;0.40;0.20;;;14.90;99.90;;;;;;5053348;27;20465;-86
2021/07/02 06:20:56;;;;;;;0.40;0.20;;;14.90;99.90;;;;;;5064125;27;20495;-86
2021/07/02 06:23:22;;;;;;;0.40;0.30;;;15.00;99.90;;;;;;5066234;27;20396;-85
2021/07/02 06:25:49;;;;;;;0.40;0.30;;;15.00;99.90;;;;;;5036869;28;20453;-85
2021/07/02 06:28:15;;;;;;;0.40;0.20;;;15.10;99.90;;;;;;5059503;28;20920;-85
2021/07/02 06:30:41;;;;;;;0.40;0.30;;;15.10;99.90;;;;;;5066897;28;20415;-84
2021/07/02 06:33:08;;;;;;;0.40;0.30;;;15.20;99.90;;;;;;5036776;28;21687;-83
2021/07/02 06:35:34;;;;;;;0.40;0.28;;;15.30;99.90;;;;;;5016984;28;20462;-84
2021/07/02 06:37:59;;;;;;;0.40;0.20;;;15.40;99.90;;;;;;5017147;28;21603;-85
2021/07/02 06:40:25;;;;;;;0.40;0.20;;;15.40;99.90;;;;;;5034256;28;20449;-84
2021/07/02 06:42:51;;;;;;;0.40;0.20;;;15.50;99.90;;;;;;5060171;28;20396;-84
2021/07/02 06:45:17;;;;;;;0.40;0.20;;;15.50;99.90;;;;;;5070023;28;20420;-84
2021/07/02 06:47:55;;;;;;;0.40;0.20;;;15.50;99.90;;;;;;5053868;28;21051;-86
2021/07/02 06:50:22;;;;;;;0.40;0.20;;;15.60;99.90;;;;;;5034137;28;20509;-85
2021/07/02 06:52:48;;;;;;;0.40;0.20;;;15.60;99.90;;;;;;5014055;28;20505;-84
2021/07/02 06:55:17;;;;;;;0.40;0.20;;;15.70;99.90;;;;;;5033344;28;20399;-86
2021/07/02 06:57:42;;;;;;;0.40;0.30;;;15.70;99.90;;;;;;5043614;28;20457;-85
2021/07/02 07:00:08;;;;;;;0.40;0.28;;;15.80;99.90;;;;;;5070445;28;20384;-83
2021/07/02 07:02:35;;;;;;;0.40;0.30;;;15.80;99.90;;;;;;5043837;28;20395;-84
2021/07/02 07:05:00;;;;;;;0.40;0.30;;;15.90;99.90;;;;;;5034514;28;20576;-84
2021/07/02 07:07:26;;;;;;;0.40;0.30;;;16.00;99.90;;;;;;5033470;28;20419;-85
2021/07/02 07:09:52;;;;;;;0.40;0.20;;;16.20;99.90;;;;;;5032920;28;21185;-83
2021/07/02 07:12:17;;;;;;;0.40;0.30;;;16.30;99.90;;;;;;5033646;28;20477;-85
2021/07/02 07:14:43;;;;;;;0.40;0.30;;;16.40;99.90;;;;;;5040913;28;20387;-85
2021/07/02 07:17:12;;;;;;;0.40;0.20;;;16.50;99.90;;;;;;5065615;28;20421;-86
2021/07/02 07:19:38;;;;;;;0.40;0.30;;;16.80;99.90;;;;;;5036012;28;20404;-84
2021/07/02 07:22:04;;;;;;;0.40;0.20;;;16.80;99.90;;;;;;5035661;28;20387;-83
2021/07/02 07:24:30;;;;;;;0.40;0.20;;;16.90;99.90;;;;;;5045684;28;20422;-86
2021/07/02 07:26:56;;;;;;;0.40;0.20;;;17.00;99.90;;;;;;5088607;28;21307;-84
2021/07/02 07:29:23;;;;;;;0.40;0.20;;;17.00;99.90;;;;;;5089490;28;20412;-79
2021/07/02 07:31:49;;;;;;;0.40;0.30;;;17.30;99.90;;;;;;5057857;27;20390;-85
2021/07/02 07:34:23;;;;;;;0.40;0.30;;;17.50;99.90;;;;;;5065075;27;20394;-83
2021/07/02 07:36:54;;;;;;;0.40;0.30;;;17.60;99.90;;;;;;5067285;27;20467;-86
2021/07/02 07:39:20;;;;;;;0.40;0.20;;;17.60;99.90;;;;;;5064919;27;20381;-82
2021/07/02 07:41:46;;;;;;;0.40;0.20;;;17.60;99.90;;;;;;5072085;27;20409;-83
2021/07/02 07:44:13;;;;;;;0.40;0.30;;;17.80;99.90;;;;;;5089095;28;20862;-87
2021/07/02 07:46:39;;;;;;;0.40;0.20;;;17.70;99.90;;;;;;5088254;28;20469;-88
2021/07/02 07:49:05;;;;;;;0.40;0.20;;;17.70;99.90;;;;;;5063887;27;20464;-85
2021/07/02 07:51:34;;;;;;;0.40;0.20;;;17.70;99.90;;;;;;5045516;27;20402;-84
2021/07/02 07:54:01;;;;;;;0.40;0.30;;;17.80;99.90;;;;;;5066070;27;21260;-84
2021/07/02 07:56:28;;;;;;;0.40;0.20;;;17.90;99.90;;;;;;5063217;27;20382;-86
2021/07/02 07:58:54;;;;;;;0.40;0.20;;;18.00;99.90;;;;;;5082665;27;20396;-85
2021/07/02 08:01:20;;;;;;;0.40;0.30;;;18.00;99.90;;;;;;5081908;27;20644;-83
2021/07/02 08:03:46;;;;;;;0.40;0.20;;;17.90;99.90;;;;;;5065990;27;20393;-83
2021/07/02 08:06:11;;;;;;;0.40;0.30;;;17.90;99.90;;;;;;5062509;27;20412;-84
2021/07/02 08:08:37;;;;;;;0.40;0.30;;;17.80;99.90;;;;;;5049097;27;20443;-83
2021/07/02 08:11:03;;;;;;;0.40;0.20;;;17.80;99.90;;;;;;5061785;27;20404;-85
2021/07/02 08:13:29;;;;;;;0.40;0.20;;;17.80;99.90;;;;;;5066684;27;20404;-85
2021/07/02 08:15:56;;;;;;;0.40;0.20;;;18.00;99.90;;;;;;5064944;27;20386;-85
2021/07/02 08:18:21;;;;;;;0.40;0.20;;;18.10;99.90;;;;;;5066841;27;20546;-84
2021/07/02 08:20:47;;;;;;;0.40;0.30;;;18.10;99.90;;;;;;5063678;27;20470;-84
2021/07/02 08:23:13;;;;;;;0.40;0.20;;;18.10;99.90;;;;;;5066683;27;20400;-85
2021/07/02 08:25:39;;;;;;;0.40;0.20;;;18.10;99.90;;;;;;5076255;27;20424;-87
2021/07/02 08:30:50;;;;;;;0.40;0.30;;;18.20;99.90;;;;;;5084590;28;20989;-85
2021/07/02 08:33:18;;;;;;;0.40;0.20;;;18.20;99.90;;;;;;5065077;27;20504;-84
2021/07/02 08:35:45;;;;;;;0.40;0.20;;;18.30;99.90;;;;;;5062592;27;21646;-87
2021/07/02 08:38:12;;;;;;;0.40;0.30;;;18.60;99.90;;;;;;5065877;27;20777;-84
2021/07/02 08:40:38;;;;;;;0.40;0.30;;;18.60;99.90;;;;;;5064129;27;20465;-84
2021/07/02 08:43:04;;;;;;;0.40;0.20;;;18.50;99.90;;;;;;5063666;27;20404;-85
2021/07/02 08:45:30;;;;;;;0.40;0.20;;;18.40;99.90;;;;;;5064514;27;20402;-84
2021/07/02 08:47:57;;;;;;;0.40;0.30;;;18.50;99.90;;;;;;5063729;27;20420;-85
2021/07/02 08:50:23;;;;;;;0.40;0.20;;;18.50;99.90;;;;;;5063396;27;20410;-83
2021/07/02 08:52:49;;;;;;;0.40;0.20;;;18.80;99.90;;;;;;5060704;27;20397;-82
2021/07/02 08:55:14;;;;;;;0.40;0.20;;;18.70;99.90;;;;;;5063513;27;21801;-87
2021/07/02 08:57:41;;;;;;;0.40;0.30;;;18.80;99.90;;;;;;5049172;27;20462;-83
2021/07/02 09:00:07;;;;;;;0.40;0.30;;;18.70;99.90;;;;;;5045510;27;20395;-84
2021/07/02 09:02:36;;;;;;;0.40;0.30;;;18.70;99.90;;;;;;5060777;27;20591;-83
2021/07/02 09:05:31;;;;;;;0.40;0.30;;;18.90;99.90;;;;;;5061505;28;20425;-85
2021/07/02 09:07:57;;;;;;;0.40;0.30;;;18.90;99.90;;;;;;5086698;28;20896;-82
2021/07/02 09:10:31;;;;;;;0.40;0.30;;;18.90;99.90;;;;;;5060013;28;20420;-85
2021/07/02 09:13:00;;;;;;;0.40;0.30;;;18.80;99.90;;;;;;5086875;28;20399;-84
2021/07/02 09:15:25;;;;;;;0.40;0.30;;;18.90;99.90;;;;;;5088930;28;20398;-81
2021/07/02 09:17:51;;;;;;;0.40;0.30;;;18.90;99.90;;;;;;5078332;28;20807;-83
2021/07/02 09:20:28;;;;;;;0.40;0.30;;;18.80;99.90;;;;;;5080572;28;21193;-86
2021/07/02 09:22:59;;;;;;;0.40;0.30;;;18.80;99.90;;;;;;5086251;28;20789;-83
2021/07/02 09:25:31;;;;;;;0.40;0.20;;;18.90;99.90;;;;;;5085615;28;21022;-85
2021/07/02 09:28:03;;;;;;;0.40;0.30;;;18.90;99.90;;;;;;5086143;28;20378;-83
2021/07/02 09:30:34;;;;;;;0.40;0.20;;;19.00;99.60;;;;;;5085385;28;20412;-84
2021/07/02 09:33:08;;;;;;;0.40;0.30;;;19.10;97.70;;;;;;5048051;28;20485;-84
2021/07/02 09:35:43;;;;;;;0.40;0.20;;;19.30;97.50;;;;;;5064432;27;20394;-85
2021/07/02 09:38:09;;;;;;;0.40;0.30;;;19.50;93.30;;;;;;5065296;27;21075;-85
2021/07/02 09:40:37;;;;;;;0.40;0.20;;;19.50;94.30;;;;;;5069988;27;20457;-84
2021/07/02 09:43:02;;;;;;;0.40;0.30;;;19.40;94.60;;;;;;5086217;27;20613;-87
2021/07/02 09:45:30;;;;;;;0.40;0.30;;;19.70;94.20;;;;;;5073398;28;20394;-88
2021/07/02 09:47:56;;;;;;;0.50;0.40;;;19.60;95.50;;;;;;5078473;27;20401;-85
2021/07/02 09:50:26;;;;;;;0.40;0.30;;;19.80;95.10;;;;;;5066681;27;20449;-83
2021/07/02 09:52:59;;;;;;;0.40;0.20;;;19.70;94.80;;;;;;5066173;27;21197;-84
2021/07/02 09:55:29;;;;;;;0.40;0.20;;;19.80;93.10;;;;;;5066214;27;20386;-82
2021/07/02 09:58:07;;;;;;;0.40;0.30;;;19.70;92.10;;;;;;5078364;27;20738;-83
2021/07/02 10:00:55;;;;;;;0.40;0.20;;;19.80;93.20;;;;;;5088918;28;20421;-83
2021/07/02 10:03:26;;;;;;;0.40;0.20;;;19.80;92.40;;;;;;5069935;27;21195;-80
2021/07/02 10:05:58;;;;;;;0.40;0.22;;;20.00;91.60;;;;;;5067494;27;21943;-83
2021/07/02 10:08:26;;;;;;;0.40;0.30;;;19.90;90.50;;;;;;5051562;27;20412;-86
2021/07/02 10:10:54;;;;;;;0.40;0.30;;;20.00;89.30;;;;;;5064109;27;20524;-84
2021/07/02 10:13:22;;;;;;;0.40;0.20;;;19.80;87.70;;;;;;5087887;28;20884;-84
2021/07/02 10:15:49;;;;;;;0.40;0.30;;;19.90;87.60;;;;;;5089468;28;21717;-80
2021/07/02 10:18:16;;;;;;;0.40;0.20;;;19.90;87.80;;;;;;5077129;27;20393;-84
2021/07/02 10:20:43;;;;;;;0.40;0.30;;;20.00;87.10;;;;;;5049528;27;20413;-83
2021/07/02 10:23:11;;;;;;;0.40;0.30;;;20.00;89.30;;;;;;5067084;27;20388;-83
2021/07/02 10:25:40;;;;;;;0.40;0.30;;;20.00;90.90;;;;;;5065563;27;20464;-82
2021/07/02 10:28:06;;;;;;;0.40;0.30;;;20.10;90.10;;;;;;5066238;27;20400;-84
2021/07/02 10:30:32;;;;;;;0.40;0.20;;;20.10;90.00;;;;;;5065548;27;21851;-84
2021/07/02 10:32:59;;;;;;;0.40;0.30;;;20.20;89.10;;;;;;5063245;27;20406;-80
2021/07/02 10:35:29;;;;;;;0.40;0.30;;;20.30;86.30;;;;;;5067537;27;20396;-83
2021/07/02 10:37:57;;;;;;;0.40;0.30;;;20.60;86.10;;;;;;5064537;27;20401;-83
2021/07/02 10:40:43;;;;;;;0.40;0.20;;;20.50;86.00;;;;;;5065258;27;21220;-83
2021/07/02 10:43:11;;;;;;;0.40;0.20;;;20.50;84.00;;;;;;5067677;27;20622;-88
2021/07/02 10:45:39;;;;;;;0.40;0.30;;;20.60;83.40;;;;;;5050717;27;21703;-85
2021/07/02 10:48:05;;;;;;;0.40;0.30;;;20.60;76.30;;;;;;5075316;27;21628;-85
2021/07/02 10:50:41;;;;;;;0.40;0.30;;;20.70;78.50;;;;;;5050411;27;21153;-81
2021/07/02 10:53:33;;;;;;;0.40;0.20;;;20.80;80.90;;;;;;5066275;27;20409;-83
2021/07/02 10:55:59;;;;;;;0.40;0.30;;;20.90;79.70;;;;;;5069528;27;20401;-84
2021/07/02 10:58:52;;;;;;;0.40;0.22;;;20.80;79.20;;;;;;5081669;27;20493;-84
2021/07/02 11:01:17;;;;;;;0.40;0.20;;;20.90;80.60;;;;;;5082332;27;21523;-84
2021/07/02 11:03:43;;;;;;;0.40;0.30;;;21.10;77.70;;;;;;5066147;27;20392;-79
2021/07/02 11:06:39;;;;;;;0.40;0.30;;;21.20;74.00;;;;;;5067268;27;20403;-83
2021/07/02 11:09:05;;;;;;;0.40;0.20;;;21.30;73.10;;;;;;5067020;27;20406;-83
2021/07/02 11:12:05;;;;;;;0.40;0.20;;;21.40;74.50;;;;;;5071812;27;20450;-84
2021/07/02 11:14:32;;;;;;;0.40;0.30;;;21.50;76.20;;;;;;5089497;28;20486;-82
2021/07/02 11:17:22;;;;;;;0.40;0.30;;;21.50;78.10;;;;;;5090321;27;20889;-87
2021/07/02 11:20:09;;;;;;;0.40;0.30;;;21.70;78.30;;;;;;5069888;27;21603;-89
2021/07/02 11:22:44;;;;;;;0.40;0.30;;;21.50;79.20;;;;;;5065645;27;21324;-80
2021/07/02 11:25:11;;;;;;;0.40;0.30;;;21.40;74.40;;;;;;5058358;28;21178;-84
2021/07/02 11:27:47;;;;;;;0.40;0.30;;;21.60;74.60;;;;;;5090057;28;20405;-75
2021/07/02 11:30:23;;;;;;;0.40;0.20;;;21.70;71.60;;;;;;5089154;28;20404;-78
2021/07/02 11:32:55;;;;;;;0.40;0.30;;;21.90;73.20;;;;;;5049705;27;20416;-81
2021/07/02 11:35:23;;;;;;;0.40;0.30;;;22.00;72.50;;;;;;5063809;27;20517;-81
2021/07/02 11:38:08;;;;;;;0.40;0.30;;;22.40;72.70;;;;;;5065774;27;20608;-85
2021/07/02 11:40:36;;;;;;;0.40;0.30;;;22.40;71.00;;;;;;5050040;28;20461;-86
2021/07/02 11:43:07;;;;;;;0.40;0.30;;;22.90;78.70;;;;;;5070281;27;20390;-84
2021/07/02 11:45:53;;;;;;;0.40;0.20;;;23.00;74.60;;;;;;5070872;27;20513;-83
2021/07/02 11:48:24;;;;;;;0.40;0.30;;;23.70;73.20;;;;;;5050483;27;21056;-87
2021/07/02 11:50:57;;;;;;;0.40;0.20;;;24.20;73.40;;;;;;5053547;27;20427;-85
2021/07/02 11:53:35;;;;;;;0.40;0.20;;;24.70;74.20;;;;;;5074870;28;20728;-85
2021/07/02 11:56:20;;;;;;;0.40;0.20;;;24.70;68.30;;;;;;5088332;28;20463;-84
2021/07/02 11:58:59;;;;;;;0.40;0.20;;;24.50;74.10;;;;;;5088752;28;20884;-85
2021/07/02 12:01:37;;;;;;;0.40;0.20;;;24.90;67.70;;;;;;5082646;27;20839;-83
2021/07/02 12:04:04;;;;;;;0.40;0.20;;;25.50;68.60;;;;;;5064640;27;20562;-85
2021/07/02 12:06:32;;;;;;;0.40;0.20;;;24.30;74.80;;;;;;5066642;27;20410;-84
2021/07/02 12:09:10;;;;;;;0.40;0.20;;;24.90;75.10;;;;;;5048282;28;21867;-81
2021/07/02 12:11:45;;;;;;;0.40;0.30;;;25.40;69.20;;;;;;5068953;27;21013;-84
2021/07/02 12:14:14;;;;;;;0.40;0.30;;;25.60;66.90;;;;;;5088884;28;20436;-85
2021/07/02 12:16:44;;;;;;;0.40;0.20;;;25.60;67.80;;;;;;5088503;28;20378;-84
2021/07/02 12:19:15;;;;;;;0.40;0.20;;;25.40;73.10;;;;;;5064880;27;20418;-85
2021/07/02 12:21:53;;;;;;;0.40;0.30;;;25.40;68.30;;;;;;5067260;27;20504;-84
2021/07/02 12:24:22;;;;;;;0.40;0.20;;;26.60;67.10;;;;;;5049799;27;20393;-84
2021/07/02 12:26:59;;;;;;;0.50;0.30;;;26.40;65.50;;;;;;5047474;28;21283;-85
2021/07/02 12:29:35;;;;;;;0.40;0.20;;;26.60;72.20;;;;;;5065469;27;20420;-90
2021/07/02 12:32:13;;;;;;;0.40;0.20;;;24.70;68.50;;;;;;5047376;28;21154;-85
2021/07/02 12:34:46;;;;;;;0.40;0.30;;;25.50;67.20;;;;;;5049192;27;20462;-84
2021/07/02 12:37:23;;;;;;;0.40;0.20;;;24.70;71.60;;;;;;5066969;27;20602;-84
2021/07/02 12:39:52;;;;;;;0.40;0.20;;;24.60;66.60;;;;;;5069550;28;21169;-84
2021/07/02 12:42:38;;;;;;;0.40;0.20;;;25.20;65.30;;;;;;5084994;28;20408;-86
2021/07/02 12:45:12;;;;;;;0.40;0.30;;;25.10;66.70;;;;;;5087631;28;20965;-88
2021/07/02 12:47:39;;;;;;;0.40;0.20;;;23.70;67.30;;;;;;5081694;27;20396;-87
2021/07/02 12:50:18;;;;;;;0.50;0.20;;;24.30;68.70;;;;;;5063775;27;20399;-88
2021/07/02 12:55:39;;;;;;;0.50;0.30;;;24.80;63.60;;;;;;5068290;27;20435;-82
2021/07/02 12:58:04;;;;;;;1.80;0.50;;;24.50;64.60;;;;;;5074967;27;20388;-86
2021/07/02 13:00:32;;;;;;;0.40;0.20;;;24.40;67.20;;;;;;5086126;28;21474;-85